createdAt,value
2023-04-05T00:00:54.307Z,2.34
2023-04-05T00:03:22.187Z,2.31
2023-04-05T00:05:50.542Z,2.35
2023-04-05T00:08:26.560Z,2.41
2023-04-05T00:10:54.600Z,2.34
2023-04-05T00:13:22.696Z,2.21
2023-04-05T00:15:50.957Z,2.06
2023-04-05T00:18:23.818Z,1.98
2023-04-05T00:20:52.249Z,1.98
2023-04-05T00:23:21.273Z,1.91
2023-04-05T00:25:49.289Z,1.91
2023-04-05T00:28:16.818Z,1.94
2023-04-05T00:30:44.395Z,1.88
2023-04-05T00:33:13.124Z,1.83
2023-04-05T00:35:42.030Z,1.84
2023-04-05T00:38:09.680Z,1.84
2023-04-05T00:40:37.360Z,1.85
2023-04-05T00:43:04.978Z,1.79
2023-04-05T00:45:32.873Z,1.80
2023-04-05T00:48:01.360Z,1.81
2023-04-05T00:50:30.881Z,1.76
2023-04-05T00:52:59.968Z,1.70
2023-04-05T00:55:29.198Z,1.62
2023-04-05T00:57:56.894Z,1.54
2023-04-05T01:00:24.547Z,1.54
2023-04-05T01:02:57.787Z,1.53
2023-04-05T01:05:36.016Z,1.49
2023-04-05T01:08:14.160Z,1.49
2023-04-05T01:10:47.623Z,1.51
2023-04-05T01:13:17.363Z,1.50
2023-04-05T01:15:44.918Z,1.42
2023-04-05T01:18:12.634Z,1.35
2023-04-05T01:20:46.944Z,1.36
2023-04-05T01:23:44.431Z,1.37
2023-04-05T01:26:45.458Z,1.39
2023-04-05T01:29:44.163Z,1.41
2023-04-05T01:32:19.282Z,1.48
2023-04-05T01:34:52.912Z,1.52
2023-04-05T01:37:23.736Z,1.48
2023-04-05T01:39:52.066Z,1.44
2023-04-05T01:42:25.568Z,1.39
2023-04-05T01:44:55.466Z,1.36
2023-04-05T01:47:23.172Z,1.36
2023-04-05T01:49:50.908Z,1.36
2023-04-05T01:52:18.444Z,1.41
2023-04-05T01:54:46.108Z,1.42
2023-04-05T01:57:13.647Z,1.51
2023-04-05T01:59:41.199Z,1.60
2023-04-05T02:02:10.098Z,1.64
2023-04-05T02:04:37.804Z,1.68
2023-04-05T02:07:05.380Z,1.74
2023-04-05T02:09:32.910Z,1.70
2023-04-05T02:12:01.350Z,1.62
2023-04-05T02:14:28.913Z,1.52
2023-04-05T02:16:56.680Z,1.49
2023-04-05T02:19:26.049Z,1.52
2023-04-05T02:21:54.693Z,1.57
2023-04-05T02:24:22.759Z,1.52
2023-04-05T02:26:51.202Z,1.39
2023-04-05T02:29:18.763Z,1.24
2023-04-05T02:31:46.344Z,1.24
2023-04-05T02:34:14.412Z,1.27
2023-04-05T02:36:44.162Z,1.26
2023-04-05T02:39:11.929Z,1.21
2023-04-05T02:41:39.562Z,1.19
2023-04-05T02:44:07.110Z,1.19
2023-04-05T02:46:34.678Z,1.15
2023-04-05T02:49:02.274Z,1.07
2023-04-05T02:51:29.842Z,1.05
2023-04-05T02:53:58.796Z,1.03
2023-04-05T02:56:26.332Z,1.04
2023-04-05T02:58:54.012Z,0.99
2023-04-05T03:01:22.635Z,0.94
2023-04-05T03:03:50.955Z,0.92
2023-04-05T03:06:20.695Z,0.92
2023-04-05T03:08:49.359Z,0.98
2023-04-05T03:11:18.390Z,1.02
2023-04-05T03:13:46.067Z,1.10
2023-04-05T03:16:13.635Z,1.14
2023-04-05T03:18:41.190Z,1.16
2023-04-05T03:21:12.616Z,1.19
2023-04-05T03:23:40.277Z,1.22
2023-04-05T03:26:07.849Z,1.24
2023-04-05T03:28:36.733Z,1.29
2023-04-05T03:31:04.305Z,1.26
2023-04-05T03:33:31.850Z,1.20
2023-04-05T03:36:00.592Z,1.20
2023-04-05T03:38:28.542Z,1.17
2023-04-05T03:40:56.085Z,1.13
2023-04-05T03:43:23.605Z,1.00
2023-04-05T03:45:52.675Z,0.95
2023-04-05T03:48:21.667Z,0.89
2023-04-05T03:50:49.199Z,0.82
2023-04-05T03:53:19.155Z,0.73
2023-04-05T03:55:49.557Z,0.70
2023-04-05T03:58:17.354Z,0.76
2023-04-05T04:00:44.901Z,0.80
2023-04-05T04:03:14.028Z,0.73
2023-04-05T04:05:42.041Z,0.66
2023-04-05T04:08:10.279Z,0.56
2023-04-05T04:10:37.951Z,0.55
2023-04-05T04:13:05.501Z,0.64
2023-04-05T04:15:33.061Z,0.73
2023-04-05T04:18:00.662Z,0.76
2023-04-05T04:20:29.763Z,0.79
2023-04-05T04:22:58.638Z,0.89
2023-04-05T04:25:26.514Z,0.93
2023-04-05T04:27:54.227Z,0.87
2023-04-05T04:30:22.774Z,0.77
2023-04-05T04:32:54.768Z,0.70
2023-04-05T04:35:24.845Z,0.66
2023-04-05T04:37:57.885Z,0.63
2023-04-05T04:40:26.777Z,0.61
2023-04-05T04:42:54.678Z,0.50
2023-04-05T04:45:22.267Z,0.38
2023-04-05T04:47:53.634Z,0.31
2023-04-05T04:50:22.082Z,0.34
2023-04-05T04:52:49.794Z,0.40
2023-04-05T04:55:18.726Z,0.46
2023-04-05T04:57:46.257Z,0.50
2023-04-05T05:00:16.569Z,0.47
2023-04-05T05:02:44.970Z,0.37
2023-04-05T05:05:12.625Z,0.29
2023-04-05T05:07:42.116Z,0.25
2023-04-05T05:10:11.357Z,0.24
2023-04-05T05:12:40.220Z,0.26
2023-04-05T05:15:09.037Z,0.27
2023-04-05T05:17:37.512Z,0.23
2023-04-05T05:20:10.610Z,0.17
2023-04-05T05:22:38.822Z,0.13
2023-04-05T05:25:08.702Z,0.10
2023-04-05T05:27:36.299Z,0.08
2023-04-05T05:30:06.190Z,0.09
2023-04-05T05:32:33.756Z,0.07
2023-04-05T05:35:01.357Z,0.08
2023-04-05T05:37:31.206Z,0.09
2023-04-05T05:39:58.910Z,0.03
2023-04-05T05:42:27.231Z,-0.01
2023-04-05T05:44:54.825Z,0.01
2023-04-05T05:47:23.692Z,0.05
2023-04-05T05:49:51.163Z,0.14
2023-04-05T05:52:18.634Z,0.27
2023-04-05T05:54:47.159Z,0.28
2023-04-05T05:57:14.664Z,0.24
2023-04-05T05:59:42.256Z,0.15
2023-04-05T06:02:09.826Z,0.08
2023-04-05T06:04:38.892Z,0.09
2023-04-05T06:07:06.549Z,0.14
2023-04-05T06:09:35.238Z,0.18
2023-04-05T06:12:03.108Z,0.15
2023-04-05T06:14:31.175Z,0.11
2023-04-05T06:16:58.835Z,0.11
2023-04-05T06:19:26.371Z,0.12
2023-04-05T06:21:55.995Z,0.16
2023-04-05T06:24:23.579Z,0.17
2023-04-05T06:26:52.409Z,0.23
2023-04-05T06:29:19.943Z,0.26
2023-04-05T06:31:48.372Z,0.27
2023-04-05T06:34:16.101Z,0.30
2023-04-05T06:36:43.731Z,0.37
2023-04-05T06:39:12.590Z,0.40
2023-04-05T06:41:40.083Z,0.47
2023-04-05T06:44:07.607Z,0.55
2023-04-05T06:46:35.162Z,0.66
2023-04-05T06:49:04.134Z,0.88
2023-04-05T06:51:32.105Z,1.11
2023-04-05T06:53:59.654Z,1.30
2023-04-05T06:56:28.594Z,1.44
2023-04-05T06:58:58.071Z,1.60
2023-04-05T07:01:26.315Z,1.82
2023-04-05T07:03:54.558Z,1.92
2023-04-05T07:06:24.033Z,2.04
2023-04-05T07:08:52.573Z,2.17
2023-04-05T07:11:21.449Z,2.31
2023-04-05T07:13:50.333Z,2.40
2023-04-05T07:16:23.032Z,2.53
2023-04-05T07:18:51.130Z,2.65
2023-04-05T07:21:18.812Z,2.82
2023-04-05T07:23:46.419Z,2.99
2023-04-05T07:26:13.910Z,3.17
2023-04-05T07:28:41.425Z,3.33
2023-04-05T07:31:10.264Z,3.52
2023-04-05T07:33:37.795Z,3.73
2023-04-05T07:36:05.873Z,3.94
2023-04-05T07:38:33.384Z,4.12
2023-04-05T07:41:01.050Z,4.32
2023-04-05T07:43:28.623Z,4.51
2023-04-05T07:46:02.584Z,4.68
2023-04-05T07:48:32.075Z,4.84
2023-04-05T07:51:04.630Z,5.01
2023-04-05T07:53:32.241Z,5.24
2023-04-05T07:56:00.153Z,5.47
2023-04-05T07:58:30.439Z,5.72
2023-04-05T08:01:00.594Z,6.00
2023-04-05T08:03:28.310Z,6.41
2023-04-05T08:05:57.694Z,7.91
2023-04-05T08:08:26.036Z,10.31
2023-04-05T08:10:53.578Z,12.45
2023-04-05T08:13:21.083Z,14.00
2023-04-05T08:15:48.581Z,15.12
2023-04-05T08:18:16.083Z,15.90
2023-04-05T08:20:43.765Z,16.63
2023-04-05T08:23:12.805Z,17.48
2023-04-05T08:25:42.548Z,18.19
2023-04-05T08:28:10.296Z,18.56
2023-04-05T08:30:39.104Z,18.56
2023-04-05T08:33:07.288Z,18.90
2023-04-05T08:35:37.515Z,19.29
2023-04-05T08:38:05.055Z,19.73
2023-04-05T08:40:41.401Z,20.05
2023-04-05T08:43:13.971Z,20.65
2023-04-05T08:45:48.904Z,21.00
2023-04-05T08:48:17.137Z,21.17
2023-04-05T08:50:51.630Z,21.23
2023-04-05T08:53:19.381Z,21.17
2023-04-05T08:55:51.103Z,21.26
2023-04-05T08:58:21.951Z,21.53
2023-04-05T09:00:51.505Z,21.60
2023-04-05T09:03:23.635Z,21.22
2023-04-05T09:05:53.351Z,21.17
2023-04-05T09:08:22.179Z,20.54
2023-04-05T09:10:52.449Z,19.27
2023-04-05T09:13:20.622Z,19.70
2023-04-05T09:15:48.399Z,20.11
2023-04-05T09:18:26.362Z,20.24
2023-04-05T09:20:57.962Z,20.26
2023-04-05T09:23:25.715Z,19.88
2023-04-05T09:25:54.554Z,19.11
2023-04-05T09:28:22.068Z,18.47
2023-04-05T09:30:49.837Z,17.94
2023-04-05T09:33:21.161Z,17.68
2023-04-05T09:35:51.533Z,17.52
2023-04-05T09:38:19.149Z,17.01
2023-04-05T09:40:47.973Z,16.48
2023-04-05T09:43:38.638Z,16.12
2023-04-05T09:46:06.590Z,16.00
2023-04-05T09:48:47.725Z,15.85
2023-04-05T09:51:16.065Z,15.78
2023-04-05T09:53:58.191Z,15.81
2023-04-05T09:56:26.001Z,15.99
2023-04-05T09:58:59.549Z,16.17
2023-04-05T10:01:28.751Z,16.35
2023-04-05T10:03:58.549Z,16.35
2023-04-05T10:06:36.145Z,16.00
2023-04-05T10:09:04.926Z,15.52
2023-04-05T10:11:33.985Z,15.06
2023-04-05T10:14:04.823Z,14.55
2023-04-05T10:16:35.452Z,14.21
2023-04-05T10:19:06.378Z,14.16
2023-04-05T10:21:41.510Z,14.28
2023-04-05T10:24:19.221Z,14.53
2023-04-05T10:26:53.024Z,14.78
2023-04-05T10:29:31.121Z,14.84
2023-04-05T10:32:04.923Z,14.81
2023-04-05T10:34:41.301Z,14.73
2023-04-05T10:37:13.696Z,14.83
2023-04-05T10:39:43.609Z,14.91
2023-04-05T10:42:16.873Z,14.90
2023-04-05T10:44:47.373Z,15.06
2023-04-05T10:47:17.216Z,15.24
2023-04-05T10:49:48.405Z,15.45
2023-04-05T10:52:17.349Z,15.44
2023-04-05T10:54:45.611Z,15.33
2023-04-05T10:57:14.156Z,15.35
2023-04-05T10:59:43.790Z,15.31
2023-04-05T11:02:13.356Z,15.32
2023-04-05T11:04:42.360Z,15.32
2023-04-05T11:07:15.307Z,15.36
2023-04-05T11:09:54.307Z,15.58
2023-04-05T11:12:41.964Z,15.53
2023-04-05T11:15:32.325Z,15.38
2023-04-05T11:18:09.408Z,15.31
2023-04-05T11:20:44.733Z,15.27
2023-04-05T11:23:13.922Z,15.24
2023-04-05T11:25:46.582Z,15.22
2023-04-05T11:28:24.671Z,15.07
2023-04-05T11:30:56.538Z,14.78
2023-04-05T11:33:57.684Z,14.55
2023-04-05T11:36:33.572Z,14.70
2023-04-05T11:39:26.605Z,14.85
2023-04-05T11:42:03.518Z,14.78
2023-04-05T11:44:40.214Z,14.46
2023-04-05T11:47:08.442Z,14.23
2023-04-05T11:49:38.180Z,14.10
2023-04-05T11:52:17.074Z,14.09
2023-04-05T11:54:49.239Z,14.08
2023-04-05T11:57:20.920Z,14.02
2023-04-05T11:59:51.543Z,14.01
2023-04-05T12:02:19.260Z,14.04
2023-04-05T12:04:55.076Z,13.98
2023-04-05T12:07:22.724Z,13.84
2023-04-05T12:10:00.863Z,13.73
2023-04-05T12:12:28.511Z,13.57
2023-04-05T12:15:02.663Z,13.32
2023-04-05T12:17:44.447Z,13.22
2023-04-05T12:20:15.100Z,13.20
2023-04-05T12:22:44.313Z,13.12
2023-04-05T12:25:12.801Z,13.08
2023-04-05T12:27:40.846Z,13.17
2023-04-05T12:30:15.595Z,13.21
2023-04-05T12:32:48.286Z,13.19
2023-04-05T12:35:20.859Z,13.22
2023-04-05T12:37:48.689Z,13.23
2023-04-05T12:40:22.736Z,13.35
2023-04-05T12:42:50.379Z,13.40
2023-04-05T12:45:18.735Z,13.42
2023-04-05T12:47:50.704Z,13.39
2023-04-05T12:50:25.951Z,13.34
2023-04-05T12:52:58.698Z,13.33
2023-04-05T12:55:26.214Z,13.37
2023-04-05T12:57:54.564Z,13.28
2023-04-05T13:00:26.053Z,13.24
2023-04-05T13:02:55.282Z,13.23
2023-04-05T13:05:26.317Z,13.11
2023-04-05T13:07:53.903Z,13.02
2023-04-05T13:10:23.008Z,13.00
2023-04-05T13:12:50.701Z,12.83
2023-04-05T13:15:19.186Z,12.68
2023-04-05T13:17:49.845Z,12.58
2023-04-05T13:20:18.528Z,12.62
2023-04-05T13:22:48.294Z,12.68
2023-04-05T13:25:16.092Z,12.71
2023-04-05T13:27:43.685Z,12.68
2023-04-05T13:30:12.086Z,12.68
2023-04-05T13:32:39.660Z,12.66
2023-04-05T13:35:07.905Z,12.52
2023-04-05T13:37:35.525Z,12.39
2023-04-05T13:40:04.924Z,12.30
2023-04-05T13:42:32.428Z,12.22
2023-04-05T13:44:59.915Z,12.16
2023-04-05T13:47:27.482Z,12.21
2023-04-05T13:49:54.979Z,12.25
2023-04-05T13:52:22.634Z,12.27
2023-04-05T13:55:03.030Z,12.24
2023-04-05T13:57:32.974Z,12.19
2023-04-05T14:00:00.769Z,12.11
2023-04-05T14:02:28.759Z,12.12
2023-04-05T14:04:56.519Z,12.07
2023-04-05T14:07:25.311Z,12.03
2023-04-05T14:09:52.797Z,11.97
2023-04-05T14:12:20.309Z,11.99
2023-04-05T14:14:49.197Z,11.97
2023-04-05T14:17:16.677Z,11.94
2023-04-05T14:19:44.191Z,11.89
2023-04-05T14:22:11.708Z,11.83
2023-04-05T14:24:39.194Z,11.74
2023-04-05T14:27:06.698Z,11.69
2023-04-05T14:29:34.238Z,11.63
2023-04-05T14:32:03.415Z,11.55
2023-04-05T14:34:31.575Z,11.37
2023-04-05T14:37:00.846Z,11.23
2023-04-05T14:39:28.331Z,11.14
2023-04-05T14:41:56.175Z,11.10
2023-04-05T14:44:24.358Z,11.03
2023-04-05T14:46:52.152Z,10.92
2023-04-05T14:49:21.486Z,10.81
2023-04-05T14:51:49.030Z,10.76
2023-04-05T14:54:16.900Z,10.74
2023-04-05T14:56:44.411Z,10.72
2023-04-05T14:59:11.980Z,10.74
2023-04-05T15:01:41.641Z,10.74
2023-04-05T15:04:09.503Z,10.76
2023-04-05T15:06:38.571Z,10.77
2023-04-05T15:09:06.226Z,10.78
2023-04-05T15:11:35.686Z,10.79
2023-04-05T15:14:03.302Z,10.74
2023-04-05T15:16:30.935Z,10.68
2023-04-05T15:18:59.040Z,10.61
2023-04-05T15:21:26.663Z,10.54
2023-04-05T15:23:55.533Z,10.47
2023-04-05T15:26:23.018Z,10.44
2023-04-05T15:28:50.508Z,10.43
2023-04-05T15:31:18.142Z,10.45
2023-04-05T15:33:46.190Z,10.49
2023-04-05T15:36:13.772Z,10.47
2023-04-05T15:38:41.490Z,10.40
2023-04-05T15:41:10.453Z,10.41
2023-04-05T15:43:38.982Z,10.37
2023-04-05T15:46:06.819Z,10.35
2023-04-05T15:48:34.364Z,10.39
2023-04-05T15:51:01.868Z,10.44
2023-04-05T15:53:29.642Z,10.43
2023-04-05T15:55:58.191Z,10.44
2023-04-05T15:58:27.137Z,10.46
2023-04-05T16:00:54.634Z,10.47
2023-04-05T16:03:22.265Z,10.47
2023-04-05T16:05:49.869Z,10.46
2023-04-05T16:08:17.349Z,10.45
2023-04-05T16:10:44.883Z,10.43
2023-04-05T16:13:12.550Z,10.38
2023-04-05T16:15:41.452Z,10.35
2023-04-05T16:18:10.450Z,10.33
2023-04-05T16:20:38.319Z,10.28
2023-04-05T16:23:06.817Z,10.20
2023-04-05T16:25:34.558Z,10.15
2023-04-05T16:28:02.137Z,10.13
2023-04-05T16:30:29.659Z,10.13
2023-04-05T16:32:58.716Z,10.10
2023-04-05T16:35:26.339Z,10.11
2023-04-05T16:37:53.843Z,10.15
2023-04-05T16:40:21.628Z,10.14
2023-04-05T16:42:49.109Z,10.08
2023-04-05T16:45:16.610Z,10.05
2023-04-05T16:47:44.481Z,9.97
2023-04-05T16:50:13.349Z,9.91
2023-04-05T16:52:40.830Z,9.87
2023-04-05T16:55:09.718Z,9.87
2023-04-05T16:57:37.252Z,9.86
2023-04-05T17:00:06.445Z,9.83
2023-04-05T17:02:34.061Z,9.75
2023-04-05T17:05:01.656Z,9.63
2023-04-05T17:07:30.678Z,9.55
2023-04-05T17:09:59.768Z,9.50
2023-04-05T17:12:27.344Z,9.44
2023-04-05T17:14:54.834Z,9.36
2023-04-05T17:17:22.357Z,9.30
2023-04-05T17:19:49.869Z,9.26
2023-04-05T17:22:17.407Z,9.22
2023-04-05T17:24:46.667Z,9.23
2023-04-05T17:27:14.171Z,9.19
2023-04-05T17:29:41.704Z,9.14
2023-04-05T17:32:09.212Z,9.06
2023-04-05T17:34:36.855Z,8.96
2023-04-05T17:37:04.401Z,8.86
2023-04-05T17:39:31.897Z,8.77
2023-04-05T17:42:00.692Z,8.70
2023-04-05T17:44:30.111Z,8.70
2023-04-05T17:47:08.550Z,8.68
2023-04-05T17:49:37.629Z,8.66
2023-04-05T17:52:06.112Z,8.68
2023-04-05T17:54:36.993Z,8.71
2023-04-05T17:57:06.421Z,8.73
2023-04-05T17:59:33.920Z,8.77
2023-04-05T18:02:01.550Z,8.79
2023-04-05T18:04:29.217Z,8.78
2023-04-05T18:06:56.873Z,8.73
2023-04-05T18:09:24.396Z,8.66
2023-04-05T18:11:51.895Z,8.60
2023-04-05T18:14:20.736Z,8.56
2023-04-05T18:16:48.351Z,8.47
2023-04-05T18:19:17.405Z,8.35
2023-04-05T18:21:45.252Z,8.22
2023-04-05T18:24:13.016Z,8.10
2023-04-05T18:26:41.359Z,7.99
2023-04-05T18:29:08.863Z,7.87
2023-04-05T18:31:37.869Z,7.77
2023-04-05T18:34:06.047Z,7.68
2023-04-05T18:36:33.673Z,7.59
2023-04-05T18:39:03.322Z,7.53
2023-04-05T18:41:30.836Z,7.50
2023-04-05T18:43:59.258Z,7.43
2023-04-05T18:46:27.307Z,7.41
2023-04-05T18:48:56.271Z,7.36
2023-04-05T18:51:25.974Z,7.34
2023-04-05T18:53:53.862Z,7.30
2023-04-05T18:56:21.422Z,7.25
2023-04-05T18:58:49.797Z,7.19
2023-04-05T19:01:18.847Z,7.15
2023-04-05T19:03:47.281Z,7.10
2023-04-05T19:06:16.591Z,7.07
2023-04-05T19:08:44.428Z,7.00
2023-04-05T19:11:13.915Z,6.93
2023-04-05T19:13:41.963Z,6.86
2023-04-05T19:16:09.493Z,6.80
2023-04-05T19:18:37.133Z,6.75
2023-04-05T19:21:05.089Z,6.70
2023-04-05T19:23:33.949Z,6.67
2023-04-05T19:26:01.513Z,6.66
2023-04-05T19:28:29.053Z,6.67
2023-04-05T19:30:57.497Z,6.66
2023-04-05T19:33:25.059Z,6.67
2023-04-05T19:35:52.766Z,6.70
2023-04-05T19:38:21.818Z,6.68
2023-04-05T19:40:50.923Z,6.56
2023-04-05T19:43:18.490Z,6.41
2023-04-05T19:45:46.166Z,6.22
2023-04-05T19:48:36.312Z,6.03
2023-04-05T19:51:05.487Z,5.94
2023-04-05T19:53:42.973Z,5.88
2023-04-05T19:56:17.120Z,5.76
2023-04-05T19:58:45.246Z,5.65
2023-04-05T20:01:20.760Z,5.57
2023-04-05T20:06:28.806Z,5.44
2023-04-05T20:32:31.476Z,4.85
2023-04-05T20:40:45.777Z,4.60
2023-04-05T20:43:24.647Z,4.54
2023-04-05T20:46:03.597Z,4.46
2023-04-05T20:48:35.345Z,4.36
2023-04-05T20:51:05.152Z,4.27
2023-04-05T20:53:33.236Z,4.22
2023-04-05T20:56:01.312Z,4.17
2023-04-05T20:58:29.592Z,4.12
2023-04-05T21:00:59.257Z,4.09
2023-04-05T21:03:27.195Z,4.05
2023-04-05T21:05:57.262Z,4.01
2023-04-05T21:08:25.674Z,3.96
2023-04-05T21:10:53.884Z,3.90
2023-04-05T21:13:21.716Z,3.85
2023-04-05T21:15:49.808Z,3.80
2023-04-05T21:18:18.126Z,3.76
2023-04-05T21:20:50.727Z,3.72
2023-04-05T21:23:21.297Z,3.68
2023-04-05T21:25:49.541Z,3.66
2023-04-05T21:28:17.700Z,3.60
2023-04-05T21:30:46.014Z,3.58
2023-04-05T21:33:14.568Z,3.57
2023-04-05T21:35:42.241Z,3.59
2023-04-05T21:38:10.019Z,3.59
2023-04-05T21:40:39.021Z,3.55
2023-04-05T21:43:06.849Z,3.51
2023-04-05T21:45:34.599Z,3.51
2023-04-05T21:48:02.256Z,3.50
2023-04-05T21:50:29.978Z,3.47
2023-04-05T21:52:57.703Z,3.44
2023-04-05T21:55:25.297Z,3.38
2023-04-05T21:57:54.222Z,3.33
2023-04-05T22:00:25.582Z,3.32
2023-04-05T22:02:53.424Z,3.30
2023-04-05T22:05:33.829Z,3.28
2023-04-05T22:08:05.665Z,3.24
2023-04-05T22:10:33.663Z,3.19
2023-04-05T22:13:02.661Z,3.13
2023-04-05T22:15:30.307Z,3.10
2023-04-05T22:17:57.948Z,3.07
2023-04-05T22:20:25.792Z,3.06
2023-04-05T22:22:53.346Z,3.05
2023-04-05T22:25:21.125Z,3.01
2023-04-05T22:27:48.756Z,3.01
2023-04-05T22:30:18.137Z,2.96
2023-04-05T22:32:45.777Z,2.98
2023-04-05T22:35:13.405Z,3.03
2023-04-05T22:37:41.149Z,3.03
2023-04-05T22:40:09.739Z,3.03
2023-04-05T22:42:38.294Z,3.00
2023-04-05T22:45:07.378Z,2.96
2023-04-05T22:47:37.211Z,2.95
2023-04-05T22:50:05.469Z,2.97
2023-04-05T22:52:33.259Z,2.99
2023-04-05T22:55:01.159Z,2.97
2023-04-05T22:57:29.142Z,2.94
2023-04-05T22:59:56.666Z,2.85
2023-04-05T23:02:24.623Z,2.76
2023-04-05T23:04:53.795Z,2.69
2023-04-05T23:07:21.332Z,2.67
2023-04-05T23:09:48.942Z,2.70
2023-04-05T23:12:16.550Z,2.75
2023-04-05T23:14:44.507Z,2.75
2023-04-05T23:17:12.094Z,2.71
2023-04-05T23:19:39.835Z,2.66
2023-04-05T23:22:08.780Z,2.59
2023-04-05T23:24:36.330Z,2.50
2023-04-05T23:27:03.996Z,2.44
2023-04-05T23:29:31.662Z,2.41
2023-04-05T23:31:59.213Z,2.37
2023-04-05T23:34:28.256Z,2.34
2023-04-05T23:36:55.879Z,2.31
2023-04-05T23:39:24.933Z,2.33
2023-04-05T23:41:52.593Z,2.33
2023-04-05T23:44:20.529Z,2.33
2023-04-05T23:46:48.103Z,2.34
2023-04-05T23:49:15.950Z,2.37
2023-04-05T23:51:43.901Z,2.35
2023-04-05T23:54:11.680Z,2.35
2023-04-05T23:56:41.084Z,2.35
2023-04-05T23:59:08.909Z,2.35
